Time;durP1;ratioP1;P1;durP2;ratioP2;P2;SDS_P1;SDS_P2;PMS_P1;PMS_P2;Temp;Humidity;BMP_temperature;BMP_pressure;BME280_temperature;BME280_humidity;BME280_pressure;Samples;Min_cycle;Max_cycle;Signal;HPM_P1;HPM_P2
2021/12/29 00:00:14;;;;;;;17.90;9.70;;;11.00;99.90;;;;;;5076926;27;39901;-72
2021/12/29 00:02:41;;;;;;;21.47;10.33;;;11.00;99.90;;;;;;5079993;27;39531;-72
2021/12/29 00:05:08;;;;;;;21.77;10.30;;;11.00;99.90;;;;;;5082270;27;38118;-72
2021/12/29 00:07:34;;;;;;;27.30;10.40;;;11.00;99.90;;;;;;5079219;27;38756;-72
2021/12/29 00:10:01;;;;;;;25.23;9.30;;;11.00;99.90;;;;;;5074533;27;40259;-71
2021/12/29 00:12:28;;;;;;;24.90;9.73;;;11.00;99.90;;;;;;5078385;27;49131;-72
2021/12/29 00:14:54;;;;;;;22.50;10.30;;;11.00;99.90;;;;;;5082137;28;38615;-71
2021/12/29 00:17:21;;;;;;;29.67;12.40;;;11.00;99.90;;;;;;5082277;27;40020;-71
2021/12/29 00:19:47;;;;;;;24.30;11.03;;;10.90;99.90;;;;;;5085396;27;39295;-71
2021/12/29 00:22:14;;;;;;;19.57;10.80;;;10.90;99.90;;;;;;5076866;27;38680;-73
2021/12/29 00:24:40;;;;;;;19.73;9.50;;;10.90;99.90;;;;;;5069935;28;37819;-73
2021/12/29 00:27:07;;;;;;;14.30;6.67;;;10.90;99.90;;;;;;5080963;27;39573;-71
2021/12/29 00:29:33;;;;;;;21.03;7.30;;;10.90;99.90;;;;;;5082678;27;38506;-71
2021/12/29 00:31:59;;;;;;;14.23;6.93;;;10.90;99.90;;;;;;5077316;27;38597;-71
2021/12/29 00:34:25;;;;;;;17.10;6.17;;;10.90;99.90;;;;;;5081760;27;36830;-72
2021/12/29 00:36:51;;;;;;;17.27;5.67;;;10.90;99.90;;;;;;5076163;27;37803;-73
2021/12/29 00:39:18;;;;;;;12.37;5.83;;;10.90;99.90;;;;;;5082343;27;39835;-70
2021/12/29 00:41:44;;;;;;;12.73;5.90;;;10.90;99.90;;;;;;5081884;27;39101;-72
2021/12/29 00:44:10;;;;;;;16.87;6.93;;;10.90;99.90;;;;;;5081053;27;36591;-71
2021/12/29 00:46:39;;;;;;;13.40;7.47;;;10.80;99.90;;;;;;5085130;27;39881;-72
2021/12/29 00:49:08;;;;;;;18.50;7.27;;;10.90;99.90;;;;;;5079980;27;38096;-72
2021/12/29 00:51:34;;;;;;;13.47;5.83;;;10.80;99.90;;;;;;5082039;27;38549;-72
2021/12/29 00:54:01;;;;;;;15.80;6.60;;;10.80;99.90;;;;;;5083517;27;37269;-72
2021/12/29 00:56:27;;;;;;;18.43;5.97;;;10.80;99.90;;;;;;5085646;27;47065;-72
2021/12/29 00:58:53;;;;;;;14.93;6.70;;;10.80;99.90;;;;;;5087607;27;39349;-72
2021/12/29 01:01:19;;;;;;;19.33;6.97;;;10.80;99.90;;;;;;5077279;27;39861;-72
2021/12/29 01:03:46;;;;;;;16.50;6.10;;;10.80;99.90;;;;;;5080202;27;37910;-72
2021/12/29 01:06:12;;;;;;;16.37;6.37;;;10.80;99.90;;;;;;5081538;27;39331;-72
2021/12/29 01:08:38;;;;;;;25.23;7.50;;;10.80;99.90;;;;;;5098101;27;39305;-72
2021/12/29 01:11:05;;;;;;;15.13;6.43;;;10.80;99.90;;;;;;5080387;27;38942;-72
2021/12/29 01:13:34;;;;;;;22.37;7.40;;;10.80;99.90;;;;;;5080905;28;38181;-72
2021/12/29 01:18:34;;;;;;;15.82;7.43;;;10.80;99.90;;;;;;5068862;28;49327;-72
2021/12/29 01:21:00;;;;;;;20.40;6.47;;;10.80;99.90;;;;;;5079871;27;38231;-72
2021/12/29 01:23:27;;;;;;;14.10;6.17;;;10.80;99.90;;;;;;5079626;27;37016;-72
2021/12/29 01:25:53;;;;;;;20.47;6.47;;;10.80;99.90;;;;;;5084801;27;39352;-72
2021/12/29 01:28:19;;;;;;;17.13;5.70;;;10.80;99.90;;;;;;5076285;27;37273;-72
2021/12/29 01:30:45;;;;;;;12.47;5.90;;;10.80;99.90;;;;;;5076637;27;37386;-72
2021/12/29 01:33:12;;;;;;;20.07;5.93;;;10.80;99.90;;;;;;5081075;27;37373;-72
2021/12/29 01:35:40;;;;;;;15.13;6.20;;;10.80;99.90;;;;;;5079287;27;38223;-72
2021/12/29 01:38:07;;;;;;;17.10;6.60;;;10.80;99.90;;;;;;5080571;27;40083;-72
2021/12/29 01:40:35;;;;;;;14.83;5.80;;;10.80;99.90;;;;;;5075090;27;38429;-73
2021/12/29 01:43:04;;;;;;;13.73;5.40;;;10.80;99.90;;;;;;5077197;27;37185;-72
2021/12/29 01:45:31;;;;;;;19.87;5.67;;;10.80;99.90;;;;;;5086915;27;48315;-72
2021/12/29 01:48:00;;;;;;;15.43;5.43;;;10.80;99.90;;;;;;5086765;27;38912;-72
2021/12/29 01:50:26;;;;;;;13.07;4.90;;;10.80;99.90;;;;;;5074050;27;38751;-72
2021/12/29 01:53:00;;;;;;;13.10;4.33;;;10.80;99.90;;;;;;5074543;28;39505;-72
2021/12/29 01:55:27;;;;;;;13.07;4.80;;;10.80;99.90;;;;;;5076073;27;39841;-72
2021/12/29 01:57:54;;;;;;;18.90;6.43;;;10.90;99.90;;;;;;5076297;28;38685;-73
2021/12/29 02:00:24;;;;;;;19.83;7.13;;;10.80;99.90;;;;;;5073547;27;38580;-72
2021/12/29 02:02:50;;;;;;;17.73;6.50;;;10.80;99.90;;;;;;5078062;27;39022;-73
2021/12/29 02:05:16;;;;;;;22.97;7.40;;;10.80;99.90;;;;;;5072763;27;37621;-72
2021/12/29 02:07:43;;;;;;;23.63;7.70;;;10.70;99.90;;;;;;5075637;28;38322;-72
2021/12/29 02:10:12;;;;;;;20.33;7.03;;;10.70;99.90;;;;;;5073842;27;36529;-72
2021/12/29 02:12:39;;;;;;;20.40;7.07;;;10.70;99.90;;;;;;5077611;27;36750;-72
2021/12/29 02:15:06;;;;;;;25.50;7.33;;;10.70;99.90;;;;;;5076806;27;37574;-72
2021/12/29 02:17:33;;;;;;;25.60;7.70;;;10.60;99.90;;;;;;5078754;28;39859;-72
2021/12/29 02:20:01;;;;;;;30.13;9.10;;;10.60;99.90;;;;;;5076725;27;38254;-72
2021/12/29 02:22:40;;;;;;;18.23;7.23;;;10.60;99.90;;;;;;5070603;27;48819;-72
2021/12/29 02:27:45;;;;;;;18.83;7.73;;;10.60;99.90;;;;;;5072122;27;39249;-72
2021/12/29 02:30:11;;;;;;;18.03;7.23;;;10.60;99.90;;;;;;5076423;27;37193;-72
2021/12/29 02:32:41;;;;;;;18.63;7.30;;;10.60;99.90;;;;;;5072800;28;36120;-71
2021/12/29 02:35:09;;;;;;;29.47;10.03;;;10.50;99.90;;;;;;5073478;27;39848;-72
2021/12/29 02:37:35;;;;;;;15.77;7.47;;;10.60;99.90;;;;;;5082277;28;40531;-72
2021/12/29 02:40:01;;;;;;;18.10;7.40;;;10.60;99.90;;;;;;5077156;27;39144;-72
2021/12/29 02:42:30;;;;;;;20.20;7.00;;;10.60;99.90;;;;;;5079771;28;35823;-71
2021/12/29 02:45:01;;;;;;;16.87;6.80;;;10.60;99.90;;;;;;5087602;27;39449;-71
2021/12/29 02:47:27;;;;;;;18.93;9.47;;;10.60;99.90;;;;;;5077971;27;49293;-72
2021/12/29 02:49:53;;;;;;;20.97;7.73;;;10.60;99.90;;;;;;5079881;28;39595;-71
2021/12/29 02:52:19;;;;;;;16.23;7.47;;;10.60;99.90;;;;;;5082974;27;36742;-72
2021/12/29 02:54:45;;;;;;;24.47;8.87;;;10.60;99.90;;;;;;5079700;28;39399;-71
2021/12/29 02:57:11;;;;;;;26.00;11.23;;;10.60;99.90;;;;;;5078846;27;39194;-72
2021/12/29 02:59:38;;;;;;;25.07;11.67;;;10.60;99.90;;;;;;5077455;27;38719;-71
2021/12/29 03:02:04;;;;;;;25.83;11.60;;;10.50;99.90;;;;;;5081454;27;37714;-71
2021/12/29 03:04:30;;;;;;;22.40;11.17;;;10.50;99.90;;;;;;5078739;28;40485;-72
2021/12/29 03:06:56;;;;;;;28.13;11.10;;;10.50;99.90;;;;;;5086117;27;38815;-72
2021/12/29 03:09:22;;;;;;;24.57;9.80;;;10.50;99.90;;;;;;5074869;28;38732;-70
2021/12/29 03:11:48;;;;;;;21.27;9.70;;;10.50;99.90;;;;;;5070760;28;38258;-72
2021/12/29 03:14:16;;;;;;;29.97;9.43;;;10.50;99.90;;;;;;5080302;27;39667;-71
2021/12/29 03:16:43;;;;;;;22.93;10.27;;;10.40;99.90;;;;;;5070384;27;39083;-71
2021/12/29 03:19:09;;;;;;;30.20;10.63;;;10.40;99.90;;;;;;5072151;27;39141;-71
2021/12/29 03:21:37;;;;;;;27.90;10.03;;;10.50;99.90;;;;;;5081275;28;38047;-72
2021/12/29 03:24:05;;;;;;;32.93;10.37;;;10.50;99.90;;;;;;5088653;27;39851;-72
2021/12/29 03:26:31;;;;;;;24.80;9.33;;;10.40;99.90;;;;;;5080584;27;38364;-72
2021/12/29 03:28:58;;;;;;;23.43;8.40;;;10.40;99.90;;;;;;5071975;27;37988;-72
2021/12/29 03:31:25;;;;;;;18.27;9.10;;;10.40;99.90;;;;;;5074117;27;36683;-72
2021/12/29 03:33:51;;;;;;;23.23;9.30;;;10.40;99.90;;;;;;5080444;28;38138;-72
2021/12/29 03:36:18;;;;;;;18.90;7.63;;;10.40;99.90;;;;;;5082164;27;38380;-72
2021/12/29 03:38:46;;;;;;;24.73;9.47;;;10.40;99.90;;;;;;5073083;28;37769;-72
2021/12/29 03:41:15;;;;;;;22.27;8.97;;;10.40;99.90;;;;;;5082529;27;38667;-72
2021/12/29 03:43:43;;;;;;;25.90;9.80;;;10.40;99.90;;;;;;5088454;27;37729;-72
2021/12/29 03:46:10;;;;;;;24.10;8.47;;;10.40;99.90;;;;;;5075602;27;36430;-72
2021/12/29 03:48:40;;;;;;;21.93;7.60;;;10.40;99.90;;;;;;5078913;27;38225;-71
2021/12/29 03:51:07;;;;;;;24.43;8.63;;;10.40;99.90;;;;;;5079353;27;38426;-72
2021/12/29 03:53:34;;;;;;;16.63;7.83;;;10.40;99.90;;;;;;5073971;28;38756;-71
2021/12/29 03:56:00;;;;;;;14.70;7.90;;;10.40;99.90;;;;;;5080847;27;38495;-71
2021/12/29 03:58:27;;;;;;;20.37;9.47;;;10.40;99.90;;;;;;5087909;27;47165;-72
2021/12/29 04:00:58;;;;;;;18.13;9.67;;;10.40;99.90;;;;;;5092912;27;37815;-71
2021/12/29 04:03:24;;;;;;;24.83;8.67;;;10.40;99.90;;;;;;5082188;27;39612;-71
2021/12/29 04:05:50;;;;;;;18.10;7.47;;;10.40;99.90;;;;;;5084263;27;37913;-71
2021/12/29 04:08:16;;;;;;;22.87;7.87;;;10.40;99.90;;;;;;5085301;27;37598;-71
2021/12/29 04:10:43;;;;;;;18.50;7.43;;;10.40;99.90;;;;;;5079334;27;38322;-72
2021/12/29 04:13:09;;;;;;;18.93;7.37;;;10.40;99.90;;;;;;5081275;27;38531;-72
2021/12/29 04:15:36;;;;;;;18.57;6.97;;;10.40;99.90;;;;;;5082019;27;37655;-73
2021/12/29 04:18:14;;;;;;;15.77;6.67;;;10.40;99.90;;;;;;5101905;27;37261;-72
2021/12/29 04:20:55;;;;;;;15.67;6.23;;;10.40;99.90;;;;;;5076448;27;38274;-72
2021/12/29 04:23:22;;;;;;;14.23;6.83;;;10.40;99.90;;;;;;5090092;27;40862;-72
2021/12/29 04:25:52;;;;;;;16.30;6.57;;;10.40;99.90;;;;;;5082236;27;37099;-73
2021/12/29 04:28:20;;;;;;;15.17;6.90;;;10.40;99.90;;;;;;5082053;28;36959;-72
2021/12/29 04:30:52;;;;;;;18.07;6.60;;;10.30;99.90;;;;;;5076649;27;37432;-73
2021/12/29 04:33:19;;;;;;;20.00;7.93;;;10.40;99.90;;;;;;5086593;27;36995;-72
2021/12/29 04:35:46;;;;;;;16.73;8.10;;;10.30;99.90;;;;;;5080143;27;39059;-73
2021/12/29 04:38:13;;;;;;;18.33;7.80;;;10.30;99.90;;;;;;5083043;27;37092;-73
2021/12/29 04:40:39;;;;;;;20.73;6.50;;;10.40;99.90;;;;;;5096661;27;38528;-73
2021/12/29 04:43:05;;;;;;;17.10;6.57;;;10.30;99.90;;;;;;5075774;28;41074;-73
2021/12/29 04:45:32;;;;;;;22.90;6.80;;;10.30;99.90;;;;;;5081575;27;37924;-72
2021/12/29 04:47:59;;;;;;;22.40;7.70;;;10.30;99.90;;;;;;5088669;27;39418;-72
2021/12/29 04:50:28;;;;;;;20.93;7.10;;;10.30;99.90;;;;;;5079945;27;37591;-71
2021/12/29 04:52:58;;;;;;;16.57;7.03;;;10.30;99.90;;;;;;5095323;27;38051;-71
2021/12/29 04:55:26;;;;;;;27.63;7.37;;;10.30;99.90;;;;;;5075583;27;38771;-71
2021/12/29 04:57:52;;;;;;;29.40;8.10;;;10.30;99.90;;;;;;5085852;27;37320;-72
2021/12/29 05:00:21;;;;;;;22.90;6.87;;;10.30;99.90;;;;;;5079694;27;37143;-72
2021/12/29 05:02:48;;;;;;;25.97;9.40;;;10.30;99.90;;;;;;5077275;27;39464;-72
2021/12/29 05:05:23;;;;;;;28.33;8.23;;;10.30;99.90;;;;;;5076792;27;36440;-72
2021/12/29 05:10:35;;;;;;;23.87;8.33;;;10.30;99.90;;;;;;5080467;27;49168;-72
2021/12/29 05:13:02;;;;;;;21.53;7.90;;;10.30;99.90;;;;;;5081501;28;38113;-71
2021/12/29 05:15:28;;;;;;;25.77;9.00;;;10.30;99.90;;;;;;5079563;27;47101;-70
2021/12/29 05:17:56;;;;;;;21.03;7.17;;;10.30;99.90;;;;;;5094093;27;37292;-72
2021/12/29 05:20:22;;;;;;;27.67;9.70;;;10.30;99.90;;;;;;5081066;27;35992;-72
2021/12/29 05:22:49;;;;;;;20.87;9.57;;;10.30;99.90;;;;;;5083132;28;40804;-72
2021/12/29 05:25:15;;;;;;;20.40;8.33;;;10.30;99.90;;;;;;5096675;27;37440;-72
2021/12/29 05:27:41;;;;;;;20.43;8.63;;;10.40;99.90;;;;;;5090177;27;37690;-73
2021/12/29 05:30:07;;;;;;;18.87;9.70;;;10.30;99.90;;;;;;5089363;27;37327;-73
2021/12/29 05:32:34;;;;;;;23.73;9.33;;;10.30;99.90;;;;;;5079887;27;39231;-72
2021/12/29 05:35:00;;;;;;;21.60;8.97;;;10.30;99.90;;;;;;5078136;28;38855;-73
2021/12/29 05:37:26;;;;;;;22.70;9.47;;;10.30;99.90;;;;;;5073622;27;38032;-72
2021/12/29 05:39:52;;;;;;;24.17;9.63;;;10.30;99.90;;;;;;5079257;28;38336;-72
2021/12/29 05:42:18;;;;;;;25.47;10.93;;;10.30;99.90;;;;;;5078240;27;39508;-72
2021/12/29 05:44:44;;;;;;;22.73;9.97;;;10.30;99.90;;;;;;5086270;27;40011;-72
2021/12/29 05:47:10;;;;;;;31.77;10.33;;;10.30;99.90;;;;;;5078504;27;37691;-72
2021/12/29 05:49:36;;;;;;;31.07;11.70;;;10.30;99.90;;;;;;5085472;27;38349;-72
2021/12/29 05:52:03;;;;;;;19.93;10.47;;;10.30;99.90;;;;;;5082123;27;39140;-72
2021/12/29 05:54:29;;;;;;;27.63;10.87;;;10.40;99.90;;;;;;5086386;28;40018;-72
2021/12/29 05:56:56;;;;;;;18.90;9.43;;;10.30;99.90;;;;;;5088209;28;38398;-73
2021/12/29 05:59:22;;;;;;;27.87;11.10;;;10.30;99.90;;;;;;5076358;27;38558;-72
2021/12/29 06:01:48;;;;;;;24.03;11.87;;;10.30;99.90;;;;;;5087058;27;37685;-72
2021/12/29 06:04:14;;;;;;;24.53;10.53;;;10.30;99.90;;;;;;5089400;27;38411;-72
2021/12/29 06:06:41;;;;;;;28.07;11.03;;;10.30;99.90;;;;;;5093055;27;39205;-72
2021/12/29 06:09:07;;;;;;;20.67;9.87;;;10.30;99.90;;;;;;5080959;27;37191;-72
2021/12/29 06:11:33;;;;;;;21.43;9.03;;;10.30;99.90;;;;;;5081139;28;40301;-72
2021/12/29 06:14:00;;;;;;;21.90;10.67;;;10.30;99.90;;;;;;5093836;27;39541;-72
2021/12/29 06:16:27;;;;;;;21.93;10.20;;;10.20;99.90;;;;;;5097206;27;38698;-72
2021/12/29 06:18:54;;;;;;;19.27;10.40;;;10.20;99.90;;;;;;5086028;28;38446;-72
2021/12/29 06:21:20;;;;;;;21.83;9.60;;;10.20;99.90;;;;;;5085473;27;37360;-72
2021/12/29 06:23:47;;;;;;;15.53;8.73;;;10.20;99.90;;;;;;5086687;27;38939;-72
2021/12/29 06:26:14;;;;;;;20.37;10.37;;;10.20;99.90;;;;;;5081447;27;39147;-72
2021/12/29 06:28:41;;;;;;;19.57;8.67;;;10.20;99.90;;;;;;5085451;27;36142;-72
2021/12/29 06:31:07;;;;;;;19.13;10.57;;;10.20;99.90;;;;;;5083484;27;40004;-73
2021/12/29 06:33:33;;;;;;;25.97;10.00;;;10.10;99.90;;;;;;5081609;27;39102;-73
2021/12/29 06:35:59;;;;;;;20.17;10.40;;;10.10;99.90;;;;;;5083900;27;38092;-73
2021/12/29 06:38:26;;;;;;;21.47;10.67;;;10.00;99.90;;;;;;5080528;27;39018;-73
2021/12/29 06:40:52;;;;;;;24.63;10.67;;;10.00;99.90;;;;;;5085748;27;39029;-73
2021/12/29 06:43:18;;;;;;;20.73;8.07;;;9.90;99.90;;;;;;5080066;27;40033;-72
2021/12/29 06:45:44;;;;;;;18.30;8.17;;;10.00;99.90;;;;;;5078451;27;39152;-74
2021/12/29 06:48:10;;;;;;;16.53;7.10;;;9.90;99.90;;;;;;5075594;27;38005;-73
2021/12/29 06:50:36;;;;;;;15.37;6.70;;;9.90;99.90;;;;;;5083677;27;38434;-71
2021/12/29 06:53:03;;;;;;;21.03;8.00;;;9.90;99.90;;;;;;5070863;27;39392;-73
2021/12/29 06:55:29;;;;;;;17.83;6.83;;;9.90;99.90;;;;;;5083893;27;47339;-71
2021/12/29 06:57:55;;;;;;;21.90;8.93;;;9.90;99.90;;;;;;5085373;28;39031;-71
2021/12/29 07:00:21;;;;;;;16.90;6.77;;;9.90;99.90;;;;;;5076296;27;39470;-71
2021/12/29 07:02:47;;;;;;;15.80;6.20;;;9.90;99.90;;;;;;5084518;27;38483;-71
2021/12/29 07:05:15;;;;;;;17.33;7.03;;;9.90;99.90;;;;;;5086757;27;38837;-72
2021/12/29 07:07:42;;;;;;;19.03;7.90;;;9.90;99.90;;;;;;5087669;27;37937;-71
2021/12/29 07:10:09;;;;;;;12.47;6.63;;;9.90;99.90;;;;;;5082445;27;39170;-71
2021/12/29 07:12:35;;;;;;;15.67;5.60;;;9.90;99.90;;;;;;5081015;27;40445;-71
2021/12/29 07:15:01;;;;;;;17.43;5.73;;;9.90;99.90;;;;;;5087658;27;40354;-72
2021/12/29 07:17:28;;;;;;;13.03;5.97;;;9.90;99.90;;;;;;5072590;28;48321;-72
2021/12/29 07:19:54;;;;;;;11.67;5.23;;;9.90;99.90;;;;;;5076034;28;40606;-71
2021/12/29 07:22:20;;;;;;;19.20;6.37;;;9.90;99.90;;;;;;5079083;27;39200;-71
2021/12/29 07:24:46;;;;;;;20.53;7.57;;;9.80;99.90;;;;;;5082529;27;38213;-72
2021/12/29 07:27:12;;;;;;;22.17;9.77;;;9.80;99.90;;;;;;5096676;27;38218;-72
2021/12/29 07:29:38;;;;;;;18.53;8.83;;;9.80;99.90;;;;;;5081273;28;39800;-72
2021/12/29 07:32:05;;;;;;;24.13;9.80;;;9.80;99.90;;;;;;5078972;27;39156;-72
2021/12/29 07:34:31;;;;;;;20.80;8.63;;;9.90;99.90;;;;;;5093835;27;38652;-72
2021/12/29 07:36:57;;;;;;;22.80;9.87;;;9.90;99.90;;;;;;5074293;27;37986;-71
2021/12/29 07:39:23;;;;;;;14.47;6.97;;;9.80;99.90;;;;;;5075035;27;39454;-72
2021/12/29 07:41:49;;;;;;;18.93;8.17;;;9.90;99.90;;;;;;5077571;27;38040;-72
2021/12/29 07:44:17;;;;;;;10.47;6.10;;;9.90;99.90;;;;;;5083642;27;38273;-71
2021/12/29 07:46:46;;;;;;;17.40;5.97;;;9.80;99.90;;;;;;5086199;27;37824;-71
2021/12/29 07:49:13;;;;;;;12.93;6.17;;;9.80;99.90;;;;;;5083249;27;39502;-71
2021/12/29 07:51:41;;;;;;;15.27;6.00;;;9.80;99.90;;;;;;5085718;27;38369;-72
2021/12/29 07:54:07;;;;;;;15.87;6.37;;;9.80;99.90;;;;;;5082806;28;38504;-71
2021/12/29 07:56:33;;;;;;;10.77;6.00;;;9.80;99.90;;;;;;5088228;27;37703;-72
2021/12/29 07:59:00;;;;;;;14.03;8.10;;;9.70;99.90;;;;;;5088154;27;40420;-73
2021/12/29 08:01:26;;;;;;;9.17;5.63;;;9.70;99.90;;;;;;5085885;27;39191;-73
2021/12/29 08:03:52;;;;;;;13.97;6.73;;;9.70;99.90;;;;;;5098688;27;39554;-72
2021/12/29 08:06:19;;;;;;;14.80;6.13;;;9.70;99.90;;;;;;5086160;27;36849;-74
2021/12/29 08:08:45;;;;;;;11.97;6.83;;;9.70;99.90;;;;;;5083334;28;40388;-73
2021/12/29 08:11:11;;;;;;;15.00;6.90;;;9.70;99.90;;;;;;5077298;27;39745;-71
2021/12/29 08:13:38;;;;;;;16.10;7.53;;;9.60;99.90;;;;;;5084437;27;38223;-72
2021/12/29 08:16:05;;;;;;;13.07;7.10;;;9.50;99.90;;;;;;5084054;27;37163;-72
2021/12/29 08:18:31;;;;;;;21.07;8.00;;;9.50;99.90;;;;;;5085857;28;39013;-71
2021/12/29 08:20:57;;;;;;;11.73;6.70;;;9.50;99.90;;;;;;5086585;28;38745;-71
2021/12/29 08:23:24;;;;;;;18.10;7.87;;;9.40;99.90;;;;;;5084117;27;39000;-72
2021/12/29 08:25:50;;;;;;;14.03;7.80;;;9.40;99.90;;;;;;5080305;27;37851;-72
2021/12/29 08:28:17;;;;;;;13.30;7.20;;;9.40;99.90;;;;;;5086106;27;37878;-71
2021/12/29 08:30:44;;;;;;;12.13;7.10;;;9.30;99.90;;;;;;5081139;27;39325;-71
2021/12/29 08:33:10;;;;;;;14.70;7.90;;;9.30;99.90;;;;;;5080527;27;39955;-72
2021/12/29 08:35:36;;;;;;;11.90;6.90;;;9.30;99.90;;;;;;5080405;27;38024;-71
2021/12/29 08:38:03;;;;;;;14.30;7.70;;;9.30;99.90;;;;;;5084909;28;41007;-71
2021/12/29 08:40:29;;;;;;;15.57;7.07;;;9.30;99.90;;;;;;5076563;27;48823;-70
2021/12/29 08:42:58;;;;;;;13.33;7.33;;;9.30;99.90;;;;;;5112121;27;38910;-71
2021/12/29 08:45:26;;;;;;;8.90;6.80;;;9.30;99.90;;;;;;5083810;27;37091;-72
2021/12/29 08:47:55;;;;;;;13.03;6.93;;;9.30;99.90;;;;;;5085070;27;38653;-71
2021/12/29 08:50:22;;;;;;;11.50;6.80;;;9.20;99.90;;;;;;5090692;27;38667;-71
2021/12/29 08:52:49;;;;;;;14.00;7.20;;;9.30;99.90;;;;;;5078740;27;39087;-71
2021/12/29 08:55:15;;;;;;;11.73;6.73;;;9.30;99.90;;;;;;5080991;27;37338;-71
2021/12/29 08:57:42;;;;;;;12.83;6.10;;;9.30;99.90;;;;;;5083476;28;39477;-71
2021/12/29 09:00:14;;;;;;;12.67;6.17;;;9.30;99.90;;;;;;5082694;27;39363;-71
2021/12/29 09:02:41;;;;;;;13.10;7.15;;;9.30;99.90;;;;;;5084507;28;37528;-70
2021/12/29 09:05:08;;;;;;;10.27;5.90;;;9.30;99.90;;;;;;5083729;27;38231;-70
2021/12/29 09:07:34;;;;;;;8.63;5.27;;;9.40;99.90;;;;;;5085180;27;38881;-70
2021/12/29 09:10:01;;;;;;;13.40;6.10;;;9.30;99.90;;;;;;5084739;28;39936;-71
2021/12/29 09:12:27;;;;;;;15.27;6.23;;;9.40;99.90;;;;;;5085276;27;40361;-71
2021/12/29 09:14:53;;;;;;;10.37;6.47;;;9.40;99.90;;;;;;5083726;28;37421;-71
2021/12/29 09:17:19;;;;;;;8.33;5.73;;;9.40;99.90;;;;;;5083556;27;40354;-71
2021/12/29 09:19:46;;;;;;;10.83;5.50;;;9.40;99.90;;;;;;5084360;27;39363;-71
2021/12/29 09:22:13;;;;;;;9.27;6.47;;;9.40;99.90;;;;;;5087287;27;38524;-71
2021/12/29 09:24:39;;;;;;;12.00;5.67;;;9.40;99.90;;;;;;5085128;27;37295;-71
2021/12/29 09:27:06;;;;;;;9.67;5.50;;;9.50;99.90;;;;;;5079178;27;39389;-71
2021/12/29 09:29:34;;;;;;;11.17;5.87;;;9.50;99.90;;;;;;5083767;27;39377;-71
2021/12/29 09:32:02;;;;;;;8.77;6.53;;;9.60;99.90;;;;;;5080986;27;36960;-71
2021/12/29 09:34:28;;;;;;;8.50;5.67;;;9.60;99.90;;;;;;5099296;27;47285;-70
2021/12/29 09:36:55;;;;;;;13.87;5.87;;;9.70;99.90;;;;;;5081199;28;38356;-71
2021/12/29 09:39:21;;;;;;;13.07;6.53;;;9.80;99.90;;;;;;5082820;27;38996;-71
2021/12/29 09:41:47;;;;;;;10.27;6.70;;;9.80;99.90;;;;;;5076217;27;37708;-71
2021/12/29 09:44:14;;;;;;;16.20;8.27;;;9.80;99.90;;;;;;5088026;27;37191;-71
2021/12/29 09:46:40;;;;;;;12.90;6.93;;;9.80;99.90;;;;;;5094321;27;38777;-72
2021/12/29 09:49:07;;;;;;;12.33;7.30;;;9.90;99.90;;;;;;5086053;27;39008;-71
2021/12/29 09:51:33;;;;;;;14.00;7.63;;;9.80;99.90;;;;;;5083215;27;38899;-71
2021/12/29 09:53:59;;;;;;;11.67;7.80;;;9.90;99.90;;;;;;5079324;27;37262;-71
2021/12/29 09:56:27;;;;;;;15.53;7.97;;;9.90;99.90;;;;;;5080936;27;38699;-71
2021/12/29 09:58:53;;;;;;;14.67;7.90;;;9.90;99.90;;;;;;5081803;28;39199;-71
2021/12/29 10:01:20;;;;;;;14.17;7.87;;;9.90;99.90;;;;;;5081692;27;37268;-71
2021/12/29 10:03:47;;;;;;;17.33;8.00;;;10.00;99.90;;;;;;5080480;27;37295;-70
2021/12/29 10:06:13;;;;;;;13.30;8.10;;;10.00;99.90;;;;;;5077321;27;38129;-72
2021/12/29 10:08:42;;;;;;;12.27;8.60;;;10.00;99.90;;;;;;5080218;27;38237;-72
2021/12/29 10:11:13;;;;;;;13.03;8.33;;;10.00;99.90;;;;;;5078784;27;38862;-71
2021/12/29 10:13:43;;;;;;;17.83;9.73;;;10.10;99.90;;;;;;5099840;27;35938;-71
2021/12/29 10:16:19;;;;;;;12.93;8.53;;;10.00;99.90;;;;;;5082421;27;39931;-72
2021/12/29 10:18:53;;;;;;;15.87;8.10;;;10.10;99.90;;;;;;5081942;28;38627;-71
2021/12/29 10:21:22;;;;;;;12.90;8.97;;;10.10;99.90;;;;;;5083762;27;38171;-71
2021/12/29 10:23:50;;;;;;;15.53;8.93;;;10.10;99.90;;;;;;5081442;28;36697;-71
2021/12/29 10:26:43;;;;;;;16.77;8.33;;;10.10;99.90;;;;;;5078163;27;39348;-71
2021/12/29 10:29:12;;;;;;;13.38;8.10;;;10.20;99.90;;;;;;5081615;28;39912;-70
2021/12/29 10:31:55;;;;;;;16.30;8.23;;;10.10;99.90;;;;;;5082446;27;47669;-72
2021/12/29 10:34:24;;;;;;;14.35;8.52;;;10.20;99.90;;;;;;5081051;27;37509;-71
2021/12/29 10:36:59;;;;;;;24.63;11.80;;;10.10;99.90;;;;;;5080490;28;40611;-71
2021/12/29 10:39:36;;;;;;;19.37;10.57;;;10.10;99.90;;;;;;5077361;27;38328;-71
2021/12/29 10:42:19;;;;;;;18.33;10.47;;;10.10;99.90;;;;;;5080221;27;38267;-71
2021/12/29 10:44:52;;;;;;;20.88;11.90;;;10.10;99.90;;;;;;5066746;28;38901;-71
2021/12/29 10:47:25;;;;;;;23.00;10.07;;;10.10;99.90;;;;;;5090192;27;39746;-71
2021/12/29 10:50:10;;;;;;;16.67;9.73;;;10.10;99.90;;;;;;5080381;28;39619;-72
2021/12/29 10:52:40;;;;;;;15.20;11.10;;;10.00;99.90;;;;;;5074034;28;47206;-71
2021/12/29 10:55:31;;;;;;;15.33;10.20;;;10.00;99.90;;;;;;5078247;27;36008;-72
2021/12/29 10:58:03;;;;;;;17.60;10.70;;;10.00;99.90;;;;;;5080585;27;39385;-71
2021/12/29 11:00:29;;;;;;;19.40;10.07;;;10.00;99.90;;;;;;5081142;27;48936;-71
2021/12/29 11:02:57;;;;;;;16.70;11.40;;;10.00;99.90;;;;;;5072711;28;38817;-72
2021/12/29 11:05:23;;;;;;;19.37;10.90;;;10.00;99.90;;;;;;5078178;27;37695;-71
2021/12/29 11:07:49;;;;;;;12.23;8.83;;;10.00;99.90;;;;;;5078895;28;40556;-72
2021/12/29 11:10:20;;;;;;;19.67;9.47;;;10.00;99.90;;;;;;5083541;27;39157;-71
2021/12/29 11:12:49;;;;;;;20.90;9.30;;;10.10;99.90;;;;;;5079915;28;38688;-71
2021/12/29 11:15:24;;;;;;;21.10;8.80;;;10.10;99.90;;;;;;5078385;27;38845;-71
2021/12/29 11:17:52;;;;;;;15.77;7.37;;;10.20;99.90;;;;;;5084381;27;39645;-71
2021/12/29 11:20:21;;;;;;;18.27;8.03;;;10.20;99.90;;;;;;5084886;27;38615;-71
2021/12/29 11:22:48;;;;;;;19.47;6.63;;;10.20;99.90;;;;;;5084125;27;38980;-71
2021/12/29 11:25:14;;;;;;;11.90;6.10;;;10.20;99.90;;;;;;5085515;27;36907;-71
2021/12/29 11:27:40;;;;;;;10.50;5.40;;;10.20;99.90;;;;;;5083684;27;38928;-71
2021/12/29 11:30:07;;;;;;;18.67;7.13;;;10.30;99.90;;;;;;5081741;27;39413;-71
2021/12/29 11:32:36;;;;;;;18.80;6.67;;;10.30;99.90;;;;;;5085605;27;38149;-71
2021/12/29 11:35:12;;;;;;;19.43;6.23;;;10.30;99.90;;;;;;5080524;27;38884;-72
2021/12/29 11:37:45;;;;;;;24.03;6.87;;;10.40;99.90;;;;;;5044488;27;48400;-71
2021/12/29 11:40:15;;;;;;;15.98;6.00;;;10.40;99.90;;;;;;5057149;27;39416;-71
2021/12/29 11:42:41;;;;;;;16.13;7.27;;;10.40;99.90;;;;;;5060075;28;39888;-72
2021/12/29 11:45:09;;;;;;;13.67;6.87;;;10.40;99.90;;;;;;5075806;28;39020;-72
2021/12/29 11:47:35;;;;;;;15.17;6.30;;;10.40;99.90;;;;;;5103081;27;38636;-71
2021/12/29 11:50:04;;;;;;;18.57;6.60;;;10.50;99.90;;;;;;5080816;28;39083;-72
2021/12/29 11:52:49;;;;;;;18.33;6.03;;;10.50;99.90;;;;;;5085507;27;47323;-71
2021/12/29 11:55:21;;;;;;;17.60;6.53;;;10.50;99.90;;;;;;5089460;27;38000;-71
2021/12/29 11:57:48;;;;;;;16.50;7.20;;;10.50;99.90;;;;;;5105381;27;39703;-72
2021/12/29 12:00:21;;;;;;;15.80;7.60;;;10.50;99.90;;;;;;5098139;27;39287;-72
2021/12/29 12:02:52;;;;;;;17.00;8.07;;;10.50;99.90;;;;;;5088381;27;39344;-73
2021/12/29 12:05:32;;;;;;;17.07;8.30;;;10.50;99.90;;;;;;5102647;27;37223;-72
2021/12/29 12:08:07;;;;;;;16.63;7.93;;;10.50;99.90;;;;;;5104654;27;39521;-72
2021/12/29 12:10:35;;;;;;;26.33;9.27;;;10.50;99.90;;;;;;5082064;28;47444;-71
2021/12/29 12:13:05;;;;;;;14.07;8.70;;;10.50;99.90;;;;;;5104318;27;38013;-71
2021/12/29 12:15:36;;;;;;;16.30;8.53;;;10.50;99.90;;;;;;5099610;27;48498;-71
2021/12/29 12:18:09;;;;;;;19.20;8.77;;;10.50;99.90;;;;;;5104016;27;38722;-72
2021/12/29 12:20:40;;;;;;;21.00;9.55;;;10.60;99.90;;;;;;5089204;28;38982;-71
2021/12/29 12:23:07;;;;;;;22.23;9.90;;;10.50;99.90;;;;;;5105542;27;38148;-71
2021/12/29 12:25:35;;;;;;;21.13;9.57;;;10.50;99.90;;;;;;5088430;27;38012;-72
2021/12/29 12:28:03;;;;;;;25.47;9.50;;;10.50;99.90;;;;;;5088302;27;39014;-72
2021/12/29 12:30:45;;;;;;;21.13;9.37;;;10.50;99.90;;;;;;5082697;27;46969;-72
2021/12/29 12:33:14;;;;;;;18.45;8.95;;;10.50;99.90;;;;;;5081428;28;38669;-71
2021/12/29 12:35:43;;;;;;;22.67;8.83;;;10.50;99.90;;;;;;5078220;27;38993;-71
2021/12/29 12:38:12;;;;;;;24.13;10.90;;;10.50;99.90;;;;;;5103385;27;38938;-71
2021/12/29 12:40:41;;;;;;;16.87;10.60;;;10.50;99.90;;;;;;5082188;27;39188;-70
2021/12/29 12:43:13;;;;;;;23.53;11.03;;;10.50;99.90;;;;;;5088160;27;37005;-71
2021/12/29 12:45:50;;;;;;;21.08;11.00;;;10.50;99.90;;;;;;5085034;28;38965;-71
2021/12/29 12:48:22;;;;;;;24.17;11.17;;;10.50;99.90;;;;;;5088756;28;38838;-71